sensor_id;sensor_type;location;lat;lon;timestamp;pressure;altitude;pressure_sealevel;temperature;humidity
61900;BME280;47853;55.890;37.664;2022-09-03T00:01:09;99741.78;;;7.43;72.91
61900;BME280;47853;55.890;37.664;2022-09-03T00:03:45;99739.44;;;7.69;73.02
61900;BME280;47853;55.890;37.664;2022-09-03T00:11:18;99755.56;;;7.76;71.27
61900;BME280;47853;55.890;37.664;2022-09-03T00:14:03;99757.25;;;7.57;72.48
61900;BME280;47853;55.890;37.664;2022-09-03T00:16:39;99753.91;;;7.35;73.28
61900;BME280;47853;55.890;37.664;2022-09-03T00:19:05;99758.22;;;7.46;73.40
61900;BME280;47853;55.890;37.664;2022-09-03T00:21:40;99751.81;;;7.39;73.87
61900;BME280;47853;55.890;37.664;2022-09-03T00:24:11;99768.09;;;7.34;73.91
61900;BME280;47853;55.890;37.664;2022-09-03T00:26:39;99771.84;;;7.42;74.08
61900;BME280;47853;55.890;37.664;2022-09-03T00:29:11;99776.16;;;7.33;74.10
61900;BME280;47853;55.890;37.664;2022-09-03T00:31:42;99764.53;;;7.04;75.02
61900;BME280;47853;55.890;37.664;2022-09-03T00:36:42;99776.50;;;6.99;75.51
61900;BME280;47853;55.890;37.664;2022-09-03T00:39:13;99787.00;;;7.39;74.99
61900;BME280;47853;55.890;37.664;2022-09-03T00:44:59;99788.00;;;7.48;73.70
61900;BME280;47853;55.890;37.664;2022-09-03T00:50:06;99789.38;;;7.33;74.12
61900;BME280;47853;55.890;37.664;2022-09-03T01:00:50;99806.56;;;7.07;75.21
61900;BME280;47853;55.890;37.664;2022-09-03T01:03:55;99794.13;;;6.98;75.18
61900;BME280;47853;55.890;37.664;2022-09-03T01:06:32;99802.13;;;6.46;77.08
61900;BME280;47853;55.890;37.664;2022-09-03T01:12:00;99809.84;;;6.37;78.93
61900;BME280;47853;55.890;37.664;2022-09-03T01:17:21;99808.44;;;6.33;79.73
61900;BME280;47853;55.890;37.664;2022-09-03T01:22:55;99812.13;;;6.21;80.40
61900;BME280;47853;55.890;37.664;2022-09-03T01:39:28;99835.59;;;5.91;82.08
61900;BME280;47853;55.890;37.664;2022-09-03T01:48:07;99829.78;;;5.76;82.52
61900;BME280;47853;55.890;37.664;2022-09-03T01:50:45;99845.94;;;5.83;82.60
61900;BME280;47853;55.890;37.664;2022-09-03T01:59:32;99851.53;;;5.90;82.59
61900;BME280;47853;55.890;37.664;2022-09-03T02:02:23;99862.59;;;5.84;82.71
61900;BME280;47853;55.890;37.664;2022-09-03T02:05:19;99853.41;;;5.78;82.79
61900;BME280;47853;55.890;37.664;2022-09-03T02:07:55;99863.09;;;5.77;83.18
61900;BME280;47853;55.890;37.664;2022-09-03T02:10:27;99862.00;;;5.80;83.22
61900;BME280;47853;55.890;37.664;2022-09-03T02:12:57;99858.41;;;5.81;83.20
61900;BME280;47853;55.890;37.664;2022-09-03T02:15:25;99860.00;;;5.72;83.16
61900;BME280;47853;55.890;37.664;2022-09-03T02:17:54;99858.56;;;5.68;83.44
61900;BME280;47853;55.890;37.664;2022-09-03T02:20:23;99883.81;;;5.82;83.25
61900;BME280;47853;55.890;37.664;2022-09-03T02:22:51;99883.81;;;5.82;83.43
61900;BME280;47853;55.890;37.664;2022-09-03T02:25:17;99880.94;;;5.85;83.28
61900;BME280;47853;55.890;37.664;2022-09-03T02:27:44;99874.56;;;5.88;83.01
61900;BME280;47853;55.890;37.664;2022-09-03T02:30:10;99873.03;;;5.74;82.98
61900;BME280;47853;55.890;37.664;2022-09-03T02:32:36;99862.88;;;5.69;83.25
61900;BME280;47853;55.890;37.664;2022-09-03T02:35:01;99870.88;;;5.79;83.22
61900;BME280;47853;55.890;37.664;2022-09-03T02:37:26;99888.38;;;5.80;83.50
61900;BME280;47853;55.890;37.664;2022-09-03T02:39:52;99892.94;;;5.78;83.41
61900;BME280;47853;55.890;37.664;2022-09-03T02:42:18;99894.94;;;5.86;83.30
61900;BME280;47853;55.890;37.664;2022-09-03T02:44:47;99891.72;;;5.82;83.09
61900;BME280;47853;55.890;37.664;2022-09-03T02:47:14;99893.00;;;5.88;83.23
61900;BME280;47853;55.890;37.664;2022-09-03T02:49:39;99889.53;;;5.87;83.21
61900;BME280;47853;55.890;37.664;2022-09-03T02:52:07;99889.19;;;5.80;83.07
61900;BME280;47853;55.890;37.664;2022-09-03T02:54:33;99890.63;;;5.85;82.91
61900;BME280;47853;55.890;37.664;2022-09-03T02:56:59;99881.19;;;5.82;83.05
61900;BME280;47853;55.890;37.664;2022-09-03T02:59:24;99901.97;;;5.97;82.67
61900;BME280;47853;55.890;37.664;2022-09-03T03:01:50;99897.63;;;6.07;82.40
61900;BME280;47853;55.890;37.664;2022-09-03T03:04:15;99898.25;;;5.99;82.14
61900;BME280;47853;55.890;37.664;2022-09-03T03:06:40;99906.97;;;6.11;81.94
61900;BME280;47853;55.890;37.664;2022-09-03T03:09:06;99894.94;;;6.18;81.88
61900;BME280;47853;55.890;37.664;2022-09-03T03:11:31;99891.16;;;6.11;81.72
61900;BME280;47853;55.890;37.664;2022-09-03T03:13:56;99898.44;;;6.19;81.29
61900;BME280;47853;55.890;37.664;2022-09-03T03:16:22;99896.59;;;6.31;81.17
61900;BME280;47853;55.890;37.664;2022-09-03T03:18:47;99913.56;;;6.17;80.86
61900;BME280;47853;55.890;37.664;2022-09-03T03:21:17;99910.97;;;6.05;81.01
61900;BME280;47853;55.890;37.664;2022-09-03T03:23:43;99906.41;;;6.07;81.07
61900;BME280;47853;55.890;37.664;2022-09-03T03:26:11;99916.56;;;6.12;81.33
61900;BME280;47853;55.890;37.664;2022-09-03T03:28:36;99908.38;;;6.27;81.17
61900;BME280;47853;55.890;37.664;2022-09-03T03:31:13;99918.94;;;6.48;80.55
61900;BME280;47853;55.890;37.664;2022-09-03T03:33:39;99919.66;;;6.71;79.79
61900;BME280;47853;55.890;37.664;2022-09-03T03:36:06;99924.66;;;6.95;78.68
61900;BME280;47853;55.890;37.664;2022-09-03T03:38:32;99916.94;;;6.82;77.77
61900;BME280;47853;55.890;37.664;2022-09-03T03:40:58;99920.63;;;7.01;77.12
61900;BME280;47853;55.890;37.664;2022-09-03T03:43:23;99929.72;;;7.08;76.43
61900;BME280;47853;55.890;37.664;2022-09-03T03:45:56;99927.72;;;7.32;76.40
61900;BME280;47853;55.890;37.664;2022-09-03T03:48:22;99926.91;;;7.41;75.43
61900;BME280;47853;55.890;37.664;2022-09-03T03:50:47;99908.50;;;7.20;75.23
61900;BME280;47853;55.890;37.664;2022-09-03T03:53:12;99922.09;;;7.15;75.42
61900;BME280;47853;55.890;37.664;2022-09-03T03:55:38;99931.84;;;7.24;76.04
61900;BME280;47853;55.890;37.664;2022-09-03T03:58:03;99941.66;;;7.34;75.73
61900;BME280;47853;55.890;37.664;2022-09-03T04:00:28;99936.22;;;7.35;75.27
61900;BME280;47853;55.890;37.664;2022-09-03T04:02:54;99937.06;;;7.46;75.38
61900;BME280;47853;55.890;37.664;2022-09-03T04:05:19;99924.13;;;7.43;75.29
61900;BME280;47853;55.890;37.664;2022-09-03T04:07:44;99926.34;;;7.78;75.14
61900;BME280;47853;55.890;37.664;2022-09-03T04:10:10;99918.56;;;7.46;74.26
61900;BME280;47853;55.890;37.664;2022-09-03T04:12:35;99925.28;;;7.60;74.50
61900;BME280;47853;55.890;37.664;2022-09-03T04:15:01;99942.81;;;7.61;74.47
61900;BME280;47853;55.890;37.664;2022-09-03T04:17:27;99947.41;;;7.59;74.64
61900;BME280;47853;55.890;37.664;2022-09-03T04:19:52;99947.63;;;7.87;74.54
61900;BME280;47853;55.890;37.664;2022-09-03T04:22:17;99954.16;;;7.92;73.65
61900;BME280;47853;55.890;37.664;2022-09-03T04:24:43;99941.91;;;7.91;73.00
61900;BME280;47853;55.890;37.664;2022-09-03T04:27:08;99943.91;;;8.09;72.73
61900;BME280;47853;55.890;37.664;2022-09-03T04:29:33;99947.09;;;8.03;72.84
61900;BME280;47853;55.890;37.664;2022-09-03T04:31:59;99947.50;;;7.98;73.10
61900;BME280;47853;55.890;37.664;2022-09-03T04:34:24;99946.13;;;8.13;73.03
61900;BME280;47853;55.890;37.664;2022-09-03T04:36:49;99951.97;;;8.07;72.58
61900;BME280;47853;55.890;37.664;2022-09-03T04:39:15;99945.84;;;7.97;73.12
61900;BME280;47853;55.890;37.664;2022-09-03T04:41:40;99939.44;;;8.49;72.40
61900;BME280;47853;55.890;37.664;2022-09-03T04:44:05;99936.09;;;8.47;70.69
61900;BME280;47853;55.890;37.664;2022-09-03T04:46:31;99958.38;;;8.05;72.36
61900;BME280;47853;55.890;37.664;2022-09-03T04:48:56;99959.38;;;8.23;72.54
61900;BME280;47853;55.890;37.664;2022-09-03T04:51:24;99934.84;;;8.11;72.38
61900;BME280;47853;55.890;37.664;2022-09-03T04:54:00;99940.56;;;8.07;72.17
61900;BME280;47853;55.890;37.664;2022-09-03T04:56:27;99954.91;;;8.14;72.61
61900;BME280;47853;55.890;37.664;2022-09-03T04:58:58;99947.53;;;8.37;72.13
61900;BME280;47853;55.890;37.664;2022-09-03T05:01:26;99946.69;;;8.37;71.30
61900;BME280;47853;55.890;37.664;2022-09-03T05:03:52;99950.91;;;8.49;70.94
61900;BME280;47853;55.890;37.664;2022-09-03T05:06:17;99941.00;;;8.61;70.13
61900;BME280;47853;55.890;37.664;2022-09-03T05:08:46;99962.50;;;9.16;68.66
61900;BME280;47853;55.890;37.664;2022-09-03T05:11:11;99949.25;;;9.53;67.49
61900;BME280;47853;55.890;37.664;2022-09-03T05:13:37;99956.09;;;10.20;65.13
61900;BME280;47853;55.890;37.664;2022-09-03T05:16:07;99953.44;;;10.56;63.96
61900;BME280;47853;55.890;37.664;2022-09-03T05:18:34;99961.81;;;11.14;62.09
61900;BME280;47853;55.890;37.664;2022-09-03T05:21:04;99966.09;;;11.34;61.00
61900;BME280;47853;55.890;37.664;2022-09-03T05:23:31;99974.53;;;11.02;60.77
61900;BME280;47853;55.890;37.664;2022-09-03T05:25:57;99971.13;;;10.48;62.13
61900;BME280;47853;55.890;37.664;2022-09-03T05:28:25;99964.94;;;11.10;61.58
61900;BME280;47853;55.890;37.664;2022-09-03T05:31:10;99979.19;;;12.04;58.59
61900;BME280;47853;55.890;37.664;2022-09-03T05:33:38;99983.94;;;11.93;58.16
61900;BME280;47853;55.890;37.664;2022-09-03T05:36:06;99977.72;;;12.27;57.01
61900;BME280;47853;55.890;37.664;2022-09-03T05:38:32;99981.72;;;12.89;55.22
61900;BME280;47853;55.890;37.664;2022-09-03T05:41:02;99985.19;;;13.06;54.30
61900;BME280;47853;55.890;37.664;2022-09-03T05:43:28;99980.91;;;12.72;54.87
61900;BME280;47853;55.890;37.664;2022-09-03T05:45:58;99977.63;;;13.34;53.90
61900;BME280;47853;55.890;37.664;2022-09-03T05:48:23;99985.00;;;13.24;52.11
61900;BME280;47853;55.890;37.664;2022-09-03T05:50:49;99988.38;;;11.75;56.79
61900;BME280;47853;55.890;37.664;2022-09-03T05:53:22;99998.22;;;11.49;58.46
61900;BME280;47853;55.890;37.664;2022-09-03T05:55:57;99987.72;;;11.82;57.89
61900;BME280;47853;55.890;37.664;2022-09-03T05:58:22;99986.88;;;11.38;58.46
61900;BME280;47853;55.890;37.664;2022-09-03T06:00:47;99998.44;;;11.98;56.88
61900;BME280;47853;55.890;37.664;2022-09-03T06:03:13;99993.91;;;12.91;54.71
61900;BME280;47853;55.890;37.664;2022-09-03T06:05:38;100004.31;;;13.43;52.72
61900;BME280;47853;55.890;37.664;2022-09-03T06:08:03;99994.53;;;12.36;54.51
61900;BME280;47853;55.890;37.664;2022-09-03T06:10:29;100010.69;;;12.26;55.30
61900;BME280;47853;55.890;37.664;2022-09-03T06:12:54;100002.84;;;12.24;55.12
61900;BME280;47853;55.890;37.664;2022-09-03T06:15:19;100009.72;;;12.68;54.25
61900;BME280;47853;55.890;37.664;2022-09-03T06:18:06;100009.72;;;13.10;53.35
61900;BME280;47853;55.890;37.664;2022-09-03T06:20:32;100010.69;;;12.51;54.41
61900;BME280;47853;55.890;37.664;2022-09-03T06:22:57;100010.00;;;13.31;53.84
61900;BME280;47853;55.890;37.664;2022-09-03T06:25:23;100004.75;;;14.03;51.43
61900;BME280;47853;55.890;37.664;2022-09-03T06:27:49;100017.50;;;14.47;49.98
61900;BME280;47853;55.890;37.664;2022-09-03T06:30:15;100021.34;;;15.45;47.28
61900;BME280;47853;55.890;37.664;2022-09-03T06:32:44;100016.09;;;15.36;47.00
61900;BME280;47853;55.890;37.664;2022-09-03T06:35:10;100010.22;;;14.88;48.07
61900;BME280;47853;55.890;37.664;2022-09-03T06:37:39;100010.84;;;14.20;49.21
61900;BME280;47853;55.890;37.664;2022-09-03T06:40:05;100001.81;;;13.33;51.83
61900;BME280;47853;55.890;37.664;2022-09-03T06:42:30;100005.88;;;13.04;52.81
61900;BME280;47853;55.890;37.664;2022-09-03T06:44:56;100011.22;;;14.40;50.15
61900;BME280;47853;55.890;37.664;2022-09-03T06:47:21;100026.28;;;14.33;49.39
61900;BME280;47853;55.890;37.664;2022-09-03T06:49:46;100009.00;;;14.67;48.27
61900;BME280;47853;55.890;37.664;2022-09-03T06:52:12;100035.00;;;13.30;49.85
61900;BME280;47853;55.890;37.664;2022-09-03T06:54:37;100017.72;;;13.10;51.31
61900;BME280;47853;55.890;37.664;2022-09-03T06:57:02;100021.47;;;13.97;49.74
61900;BME280;47853;55.890;37.664;2022-09-03T06:59:28;100024.69;;;14.47;48.73
61900;BME280;47853;55.890;37.664;2022-09-03T07:01:53;100012.13;;;14.79;47.53
61900;BME280;47853;55.890;37.664;2022-09-03T07:04:18;100024.59;;;14.63;47.67
61900;BME280;47853;55.890;37.664;2022-09-03T07:06:44;100035.13;;;13.54;49.85
61900;BME280;47853;55.890;37.664;2022-09-03T07:09:10;100029.25;;;14.15;49.40
61900;BME280;47853;55.890;37.664;2022-09-03T07:11:39;100026.41;;;15.25;46.49
61900;BME280;47853;55.890;37.664;2022-09-03T07:14:05;100030.38;;;17.34;42.24
61900;BME280;47853;55.890;37.664;2022-09-03T07:16:35;100028.44;;;16.13;43.65
61900;BME280;47853;55.890;37.664;2022-09-03T07:19:01;100036.69;;;15.66;44.32
61900;BME280;47853;55.890;37.664;2022-09-03T07:21:28;100034.66;;;15.98;44.34
61900;BME280;47853;55.890;37.664;2022-09-03T07:23:55;100033.53;;;14.24;47.63
61900;BME280;47853;55.890;37.664;2022-09-03T07:26:27;100030.56;;;14.11;48.76
61900;BME280;47853;55.890;37.664;2022-09-03T07:28:53;100028.47;;;15.37;46.37
61900;BME280;47853;55.890;37.664;2022-09-03T07:31:21;100036.81;;;16.24;43.59
61900;BME280;47853;55.890;37.664;2022-09-03T07:33:47;100028.91;;;15.56;44.48
61900;BME280;47853;55.890;37.664;2022-09-03T07:36:16;100027.16;;;14.25;47.13
61900;BME280;47853;55.890;37.664;2022-09-03T07:38:42;100038.28;;;14.05;48.88
61900;BME280;47853;55.890;37.664;2022-09-03T07:41:09;100027.63;;;14.84;47.96
61900;BME280;47853;55.890;37.664;2022-09-03T07:43:53;100021.34;;;14.68;46.42
61900;BME280;47853;55.890;37.664;2022-09-03T07:46:20;100023.13;;;14.29;47.77
61900;BME280;47853;55.890;37.664;2022-09-03T07:48:46;100032.97;;;15.82;45.21
61900;BME280;47853;55.890;37.664;2022-09-03T07:51:11;100028.56;;;14.44;46.44
61900;BME280;47853;55.890;37.664;2022-09-03T07:53:37;100010.91;;;12.90;49.88
61900;BME280;47853;55.890;37.664;2022-09-03T07:56:06;100037.69;;;13.22;50.97
61900;BME280;47853;55.890;37.664;2022-09-03T07:58:32;100013.06;;;15.40;46.22
61900;BME280;47853;55.890;37.664;2022-09-03T08:01:03;100033.09;;;15.05;46.28
61900;BME280;47853;55.890;37.664;2022-09-03T08:03:29;100011.31;;;13.52;49.02
61900;BME280;47853;55.890;37.664;2022-09-03T08:05:59;100028.66;;;13.31;50.39
61900;BME280;47853;55.890;37.664;2022-09-03T08:08:24;100024.16;;;13.48;50.20
61900;BME280;47853;55.890;37.664;2022-09-03T08:10:50;100026.56;;;14.15;47.78
61900;BME280;47853;55.890;37.664;2022-09-03T08:13:15;100038.03;;;13.19;49.87
61900;BME280;47853;55.890;37.664;2022-09-03T08:15:40;100030.03;;;13.19;50.10
61900;BME280;47853;55.890;37.664;2022-09-03T08:18:06;100011.47;;;13.90;48.66
61900;BME280;47853;55.890;37.664;2022-09-03T08:20:31;100015.56;;;12.97;50.71
61900;BME280;47853;55.890;37.664;2022-09-03T08:23:01;100024.84;;;15.75;46.11
61900;BME280;47853;55.890;37.664;2022-09-03T08:25:26;100025.84;;;16.85;41.40
61900;BME280;47853;55.890;37.664;2022-09-03T08:27:51;100032.81;;;16.35;41.97
61900;BME280;47853;55.890;37.664;2022-09-03T08:30:17;100022.66;;;14.81;45.40
61900;BME280;47853;55.890;37.664;2022-09-03T08:32:42;100014.66;;;16.16;43.22
61900;BME280;47853;55.890;37.664;2022-09-03T08:35:07;100010.91;;;15.80;43.74
61900;BME280;47853;55.890;37.664;2022-09-03T08:37:33;100025.88;;;16.63;42.18
61900;BME280;47853;55.890;37.664;2022-09-03T08:39:58;100016.63;;;17.16;40.84
61900;BME280;47853;55.890;37.664;2022-09-03T08:42:32;100030.13;;;16.57;41.26
61900;BME280;47853;55.890;37.664;2022-09-03T08:45:05;100012.13;;;17.58;40.12
61900;BME280;47853;55.890;37.664;2022-09-03T08:47:47;100022.91;;;17.01;41.02
61900;BME280;47853;55.890;37.664;2022-09-03T08:50:24;100014.25;;;15.52;44.25
61900;BME280;47853;55.890;37.664;2022-09-03T08:52:54;100009.25;;;17.60;41.55
61900;BME280;47853;55.890;37.664;2022-09-03T08:55:26;100013.69;;;19.44;36.15
61900;BME280;47853;55.890;37.664;2022-09-03T08:57:59;100014.31;;;20.76;33.31
61900;BME280;47853;55.890;37.664;2022-09-03T09:00:27;99998.47;;;22.36;31.27
61900;BME280;47853;55.890;37.664;2022-09-03T09:06:13;100006.50;;;21.37;30.57
61900;BME280;47853;55.890;37.664;2022-09-03T09:13:58;100022.72;;;15.86;40.18
61900;BME280;47853;55.890;37.664;2022-09-03T09:19:40;100019.28;;;17.44;36.54
61900;BME280;47853;55.890;37.664;2022-09-03T09:22:19;100013.13;;;17.92;35.29
61900;BME280;47853;55.890;37.664;2022-09-03T09:24:46;100008.19;;;16.47;37.50
61900;BME280;47853;55.890;37.664;2022-09-03T09:27:13;100026.13;;;15.79;38.78
61900;BME280;47853;55.890;37.664;2022-09-03T09:29:40;100012.53;;;16.11;38.61
61900;BME280;47853;55.890;37.664;2022-09-03T09:32:08;100018.06;;;16.24;38.20
61900;BME280;47853;55.890;37.664;2022-09-03T09:34:38;100025.66;;;16.43;37.89
61900;BME280;47853;55.890;37.664;2022-09-03T09:37:12;99997.56;;;16.60;38.03
61900;BME280;47853;55.890;37.664;2022-09-03T09:39:39;100003.00;;;17.17;36.40
61900;BME280;47853;55.890;37.664;2022-09-03T09:42:09;100001.44;;;18.20;34.20
61900;BME280;47853;55.890;37.664;2022-09-03T09:44:41;100003.78;;;18.77;32.07
61900;BME280;47853;55.890;37.664;2022-09-03T09:47:14;100005.38;;;18.24;32.79
61900;BME280;47853;55.890;37.664;2022-09-03T09:49:56;100000.59;;;17.64;33.85
61900;BME280;47853;55.890;37.664;2022-09-03T09:52:24;100003.00;;;17.52;33.84
61900;BME280;47853;55.890;37.664;2022-09-03T09:54:51;99997.59;;;18.57;32.75
61900;BME280;47853;55.890;37.664;2022-09-03T09:57:24;99999.31;;;20.55;30.26
61900;BME280;47853;55.890;37.664;2022-09-03T10:00:04;99991.34;;;21.18;29.06
61900;BME280;47853;55.890;37.664;2022-09-03T10:02:33;99974.81;;;23.74;26.08
61900;BME280;47853;55.890;37.664;2022-09-03T10:05:11;99964.06;;;23.38;25.84
61900;BME280;47853;55.890;37.664;2022-09-03T10:07:36;99980.94;;;22.38;27.36
61900;BME280;47853;55.890;37.664;2022-09-03T10:10:13;99978.13;;;22.45;27.75
61900;BME280;47853;55.890;37.664;2022-09-03T10:13:07;99984.09;;;23.01;27.05
61900;BME280;47853;55.890;37.664;2022-09-03T10:18:43;99979.44;;;21.25;29.08
61900;BME280;47853;55.890;37.664;2022-09-03T10:24:10;99988.88;;;19.35;31.96
61900;BME280;47853;55.890;37.664;2022-09-03T10:26:39;99981.28;;;21.25;29.61
61900;BME280;47853;55.890;37.664;2022-09-03T10:29:09;99979.03;;;21.22;29.72
61900;BME280;47853;55.890;37.664;2022-09-03T10:37:54;99980.22;;;19.13;31.80
61900;BME280;47853;55.890;37.664;2022-09-03T10:48:46;99993.59;;;19.40;31.40
61900;BME280;47853;55.890;37.664;2022-09-03T10:51:29;99966.69;;;19.40;31.12
61900;BME280;47853;55.890;37.664;2022-09-03T10:54:07;99989.47;;;19.37;31.81
61900;BME280;47853;55.890;37.664;2022-09-03T10:59:30;99988.22;;;18.25;33.50
61900;BME280;47853;55.890;37.664;2022-09-03T11:07:11;99994.97;;;20.54;30.74
61900;BME280;47853;55.890;37.664;2022-09-03T11:10:15;99990.06;;;22.56;26.99
61900;BME280;47853;55.890;37.664;2022-09-03T11:13:13;99978.91;;;20.91;28.14
61900;BME280;47853;55.890;37.664;2022-09-03T11:15:54;99976.66;;;19.33;31.00
61900;BME280;47853;55.890;37.664;2022-09-03T11:18:43;99977.69;;;18.24;32.69
61900;BME280;47853;55.890;37.664;2022-09-03T11:21:17;99968.94;;;18.08;32.55
61900;BME280;47853;55.890;37.664;2022-09-03T11:23:46;99956.88;;;17.35;33.53
61900;BME280;47853;55.890;37.664;2022-09-03T11:26:16;99975.75;;;17.14;34.49
61900;BME280;47853;55.890;37.664;2022-09-03T11:29:19;99977.06;;;17.24;34.44
61900;BME280;47853;55.890;37.664;2022-09-03T11:37:03;99971.28;;;16.99;35.19
61900;BME280;47853;55.890;37.664;2022-09-03T11:39:34;99975.97;;;17.19;35.57
61900;BME280;47853;55.890;37.664;2022-09-03T11:42:04;99974.66;;;17.08;35.84
61900;BME280;47853;55.890;37.664;2022-09-03T11:44:42;99967.94;;;16.97;36.10
61900;BME280;47853;55.890;37.664;2022-09-03T11:47:37;99972.38;;;16.33;37.03
61900;BME280;47853;55.890;37.664;2022-09-03T11:52:54;99964.16;;;16.85;37.04
61900;BME280;47853;55.890;37.664;2022-09-03T11:55:32;99959.47;;;16.93;36.37
61900;BME280;47853;55.890;37.664;2022-09-03T11:58:27;99962.56;;;16.90;37.09
61900;BME280;47853;55.890;37.664;2022-09-03T12:00:54;99956.63;;;18.61;34.10
61900;BME280;47853;55.890;37.664;2022-09-03T12:03:44;99951.03;;;18.90;33.31
61900;BME280;47853;55.890;37.664;2022-09-03T12:14:39;99958.06;;;19.11;32.27
61900;BME280;47853;55.890;37.664;2022-09-03T12:17:27;99954.09;;;19.93;31.27
61900;BME280;47853;55.890;37.664;2022-09-03T12:19:57;99928.00;;;19.80;30.48
61900;BME280;47853;55.890;37.664;2022-09-03T12:22:25;99946.81;;;19.86;29.38
61900;BME280;47853;55.890;37.664;2022-09-03T12:24:54;99941.16;;;21.10;28.18
61900;BME280;47853;55.890;37.664;2022-09-03T12:27:22;99935.09;;;20.13;28.94
61900;BME280;47853;55.890;37.664;2022-09-03T12:31:13;99908.88;;;19.42;30.09
61900;BME280;47853;55.890;37.664;2022-09-03T12:33:15;99886.00;;;20.29;29.26
61900;BME280;47853;55.890;37.664;2022-09-03T12:38:50;99893.91;;;21.00;27.96
61900;BME280;47853;55.890;37.664;2022-09-03T12:44:37;99912.56;;;21.58;27.30
61900;BME280;47853;55.890;37.664;2022-09-03T12:47:22;99851.38;;;20.96;28.10
61900;BME280;47853;55.890;37.664;2022-09-03T12:49:50;99906.56;;;21.37;27.34
61900;BME280;47853;55.890;37.664;2022-09-03T12:57:37;99928.47;;;18.77;31.40
61900;BME280;47853;55.890;37.664;2022-09-03T13:00:07;99910.41;;;17.35;33.44
61900;BME280;47853;55.890;37.664;2022-09-03T13:03:01;99942.59;;;17.28;34.45
61900;BME280;47853;55.890;37.664;2022-09-03T13:05:47;99925.16;;;16.82;35.65
61900;BME280;47853;55.890;37.664;2022-09-03T13:08:21;99912.78;;;17.65;34.54
61900;BME280;47853;55.890;37.664;2022-09-03T13:10:52;99909.72;;;17.75;34.48
61900;BME280;47853;55.890;37.664;2022-09-03T13:13:25;99900.97;;;18.62;33.07
61900;BME280;47853;55.890;37.664;2022-09-03T13:21:59;99913.38;;;18.69;32.97
61900;BME280;47853;55.890;37.664;2022-09-03T13:24:58;99906.75;;;19.58;31.94
61900;BME280;47853;55.890;37.664;2022-09-03T13:30:10;99897.22;;;20.01;30.66
61900;BME280;47853;55.890;37.664;2022-09-03T13:37:55;99897.09;;;16.85;36.90
61900;BME280;47853;55.890;37.664;2022-09-03T13:40:45;99900.09;;;17.38;36.31
61900;BME280;47853;55.890;37.664;2022-09-03T13:45:51;99907.88;;;17.82;34.39
61900;BME280;47853;55.890;37.664;2022-09-03T13:48:33;99907.28;;;16.39;37.34
61900;BME280;47853;55.890;37.664;2022-09-03T13:51:10;99908.69;;;16.35;37.37
61900;BME280;47853;55.890;37.664;2022-09-03T13:54:16;99897.69;;;15.49;39.29
61900;BME280;47853;55.890;37.664;2022-09-03T13:59:27;99905.00;;;15.92;39.29
61900;BME280;47853;55.890;37.664;2022-09-03T14:04:57;99894.66;;;19.28;33.64
61900;BME280;47853;55.890;37.664;2022-09-03T14:10:22;99901.44;;;20.22;31.37
61900;BME280;47853;55.890;37.664;2022-09-03T14:15:33;99880.16;;;21.21;30.21
61900;BME280;47853;55.890;37.664;2022-09-03T14:18:09;99878.19;;;21.65;29.82
61900;BME280;47853;55.890;37.664;2022-09-03T14:20:52;99882.09;;;22.24;29.53
61900;BME280;47853;55.890;37.664;2022-09-03T14:25:58;99863.72;;;21.41;29.89
61900;BME280;47853;55.890;37.664;2022-09-03T14:28:30;99877.84;;;19.79;32.26
61900;BME280;47853;55.890;37.664;2022-09-03T14:31:12;99874.97;;;19.28;32.44
61900;BME280;47853;55.890;37.664;2022-09-03T14:33:46;99869.50;;;18.69;33.66
61900;BME280;47853;55.890;37.664;2022-09-03T14:44:33;99870.50;;;16.83;37.17
61900;BME280;47853;55.890;37.664;2022-09-03T14:50:04;99869.34;;;16.35;38.52
61900;BME280;47853;55.890;37.664;2022-09-03T15:01:28;99868.63;;;16.05;39.85
61900;BME280;47853;55.890;37.664;2022-09-03T15:04:23;99868.22;;;15.86;39.97
61900;BME280;47853;55.890;37.664;2022-09-03T15:26:32;99854.56;;;15.07;40.93
61900;BME280;47853;55.890;37.664;2022-09-03T15:32:06;99839.72;;;14.75;41.99
61900;BME280;47853;55.890;37.664;2022-09-03T15:37:24;99835.41;;;14.35;43.04
61900;BME280;47853;55.890;37.664;2022-09-03T15:42:35;99835.13;;;14.30;43.36
61900;BME280;47853;55.890;37.664;2022-09-03T15:48:04;99843.00;;;14.62;42.77
61900;BME280;47853;55.890;37.664;2022-09-03T15:50:34;99849.97;;;14.48;43.25
61900;BME280;47853;55.890;37.664;2022-09-03T15:53:35;99844.41;;;13.96;44.49
61900;BME280;47853;55.890;37.664;2022-09-03T15:59:00;99840.84;;;13.57;45.72
61900;BME280;47853;55.890;37.664;2022-09-03T16:01:58;99838.84;;;13.83;45.35
61900;BME280;47853;55.890;37.664;2022-09-03T16:10:10;99848.97;;;13.64;46.10
61900;BME280;47853;55.890;37.664;2022-09-03T16:15:59;99829.38;;;13.48;46.51
61900;BME280;47853;55.890;37.664;2022-09-03T16:18:37;99827.03;;;13.77;46.08
61900;BME280;47853;55.890;37.664;2022-09-03T16:21:09;99839.00;;;13.81;46.04
61900;BME280;47853;55.890;37.664;2022-09-03T16:23:54;99843.63;;;13.64;46.47
61900;BME280;47853;55.890;37.664;2022-09-03T16:28:59;99851.53;;;13.57;46.71
61900;BME280;47853;55.890;37.664;2022-09-03T16:34:19;99860.47;;;13.25;47.75
61900;BME280;47853;55.890;37.664;2022-09-03T16:50:41;99864.91;;;13.41;47.89
61900;BME280;47853;55.890;37.664;2022-09-03T16:53:19;99874.50;;;13.27;48.29
61900;BME280;47853;55.890;37.664;2022-09-03T17:11:50;99880.03;;;13.57;48.03
61900;BME280;47853;55.890;37.664;2022-09-03T17:28:05;99896.66;;;13.27;48.90
61900;BME280;47853;55.890;37.664;2022-09-03T17:33:26;99892.28;;;12.78;50.33
61900;BME280;47853;55.890;37.664;2022-09-03T17:36:05;99895.16;;;12.68;50.66
61900;BME280;47853;55.890;37.664;2022-09-03T17:49:43;99881.31;;;12.73;51.83
61900;BME280;47853;55.890;37.664;2022-09-03T17:55:35;99875.47;;;12.77;52.08